createdAt,value
2018-10-15T00:00:15.899Z,90.91
2018-10-15T00:02:44.924Z,90.94
2018-10-15T00:05:13.474Z,91.32
2018-10-15T00:07:42.053Z,91.85
2018-10-15T00:10:10.602Z,91.31
2018-10-15T00:12:39.176Z,90.41
2018-10-15T00:15:26.788Z,91.28
2018-10-15T00:17:55.351Z,91.68
2018-10-15T00:20:24.130Z,91.18
2018-10-15T00:22:53.465Z,92.57
2018-10-15T00:25:22.046Z,91.70
2018-10-15T00:27:50.617Z,94.02
2018-10-15T00:30:19.140Z,94.62
2018-10-15T00:32:48.108Z,93.67
2018-10-15T00:35:17.268Z,95.32
2018-10-15T00:37:45.840Z,95.43
2018-10-15T00:40:14.367Z,93.73
2018-10-15T00:42:43.456Z,92.50
2018-10-15T00:45:13.989Z,94.10
2018-10-15T00:47:42.984Z,96.97
2018-10-15T00:50:12.876Z,94.05
2018-10-15T00:52:41.677Z,96.01
2018-10-15T00:55:11.361Z,95.49
2018-10-15T00:57:40.693Z,95.00
2018-10-15T01:00:11.172Z,99.00
2018-10-15T01:02:39.904Z,99.23
2018-10-15T01:05:09.381Z,100.00
2018-10-15T01:07:37.948Z,99.50
2018-10-15T01:10:07.786Z,97.82
2018-10-15T01:12:36.440Z,95.67
2018-10-15T01:15:05.412Z,98.25
2018-10-15T01:17:33.971Z,99.36
2018-10-15T01:20:02.500Z,96.48
2018-10-15T01:22:31.068Z,94.71
2018-10-15T01:24:59.586Z,100.00
2018-10-15T01:27:28.154Z,100.00
2018-10-15T01:29:56.677Z,100.00
2018-10-15T01:32:25.240Z,100.00
2018-10-15T01:34:53.820Z,100.00
2018-10-15T01:37:22.384Z,100.00
2018-10-15T01:39:50.937Z,100.00
2018-10-15T01:42:19.504Z,100.00
2018-10-15T01:44:48.040Z,100.00
2018-10-15T01:47:16.600Z,100.00
2018-10-15T01:49:45.137Z,100.00
2018-10-15T01:52:13.692Z,99.18
2018-10-15T01:54:42.240Z,100.00
2018-10-15T01:57:11.129Z,99.21
2018-10-15T01:59:39.650Z,98.35
2018-10-15T02:02:08.252Z,99.09
2018-10-15T02:04:36.772Z,98.73
2018-10-15T02:07:05.353Z,99.21
2018-10-15T02:09:34.224Z,96.66
2018-10-15T02:12:02.775Z,96.67
2018-10-15T02:14:31.337Z,97.18
2018-10-15T02:16:59.868Z,97.25
2018-10-15T02:19:28.424Z,96.89
2018-10-15T02:21:57.013Z,97.21
2018-10-15T02:24:25.584Z,97.37
2018-10-15T02:26:54.105Z,98.72
2018-10-15T02:29:22.664Z,99.60
2018-10-15T02:31:51.208Z,99.68
2018-10-15T02:34:19.809Z,99.54
2018-10-15T02:36:48.336Z,98.67
2018-10-15T02:39:16.890Z,99.53
2018-10-15T02:41:45.442Z,100.00
2018-10-15T02:44:14.009Z,99.88
2018-10-15T02:46:42.554Z,100.00
2018-10-15T02:49:11.125Z,98.51
2018-10-15T02:51:39.665Z,96.90
2018-10-15T02:54:08.243Z,96.88
2018-10-15T02:56:36.777Z,97.88
2018-10-15T02:59:05.761Z,99.24
2018-10-15T03:01:34.299Z,100.00
2018-10-15T03:04:03.493Z,100.00
2018-10-15T03:06:32.024Z,100.00
2018-10-15T03:09:00.588Z,100.00
2018-10-15T03:11:29.126Z,97.90
2018-10-15T03:13:57.693Z,97.22
2018-10-15T03:16:26.262Z,98.58
2018-10-15T03:18:54.828Z,98.88
2018-10-15T03:21:23.369Z,99.62
2018-10-15T03:23:51.918Z,99.31
2018-10-15T03:26:20.476Z,98.12
2018-10-15T03:28:49.053Z,98.79
2018-10-15T03:31:17.580Z,97.56
2018-10-15T03:33:46.149Z,98.66
2018-10-15T03:36:14.701Z,98.53
2018-10-15T03:38:43.293Z,99.11
2018-10-15T03:41:12.309Z,99.21
2018-10-15T03:43:41.047Z,97.64
2018-10-15T03:46:09.597Z,96.81
2018-10-15T03:48:38.670Z,97.65
2018-10-15T03:51:08.323Z,97.16
2018-10-15T03:53:37.968Z,98.97
2018-10-15T03:56:06.905Z,98.80
2018-10-15T03:58:37.413Z,99.16
2018-10-15T04:01:06.076Z,100.00
2018-10-15T04:03:34.869Z,100.00
2018-10-15T04:06:03.419Z,100.00
2018-10-15T04:08:32.254Z,100.00
2018-10-15T04:11:00.801Z,100.00
2018-10-15T04:13:30.090Z,100.00
2018-10-15T04:15:59.384Z,100.00
2018-10-15T04:18:28.656Z,100.00
2018-10-15T04:20:58.388Z,100.00
2018-10-15T04:23:27.920Z,100.00
2018-10-15T04:25:56.979Z,100.00
2018-10-15T04:28:25.649Z,100.00
2018-10-15T04:30:54.240Z,100.00
2018-10-15T04:33:23.790Z,100.00
2018-10-15T04:35:52.916Z,100.00
2018-10-15T04:38:21.444Z,100.00
2018-10-15T04:40:50.316Z,100.00
2018-10-15T04:43:19.209Z,100.00
2018-10-15T04:45:48.821Z,100.00
2018-10-15T04:48:17.802Z,99.83
2018-10-15T04:50:46.413Z,99.35
2018-10-15T04:53:14.945Z,99.78
2018-10-15T04:55:43.516Z,100.00
2018-10-15T04:58:12.054Z,100.00
2018-10-15T05:00:40.905Z,100.00
2018-10-15T05:03:09.668Z,100.00
2018-10-15T05:05:38.236Z,100.00
2018-10-15T05:08:06.776Z,100.00
2018-10-15T05:10:37.892Z,100.00
2018-10-15T05:13:06.511Z,99.47
2018-10-15T05:15:36.244Z,100.00
2018-10-15T05:18:05.179Z,98.79
2018-10-15T05:20:33.753Z,98.41
2018-10-15T05:23:02.287Z,99.19
2018-10-15T05:25:31.197Z,99.88
2018-10-15T05:27:59.815Z,100.00
2018-10-15T05:30:28.493Z,100.00
2018-10-15T05:32:56.952Z,100.00
2018-10-15T05:35:25.529Z,100.00
2018-10-15T05:37:54.349Z,100.00
2018-10-15T05:40:23.460Z,100.00
2018-10-15T05:42:52.003Z,100.00
2018-10-15T05:45:20.565Z,99.84
2018-10-15T05:47:49.189Z,100.00
2018-10-15T05:50:17.787Z,99.86
2018-10-15T05:52:46.321Z,100.00
2018-10-15T05:55:14.885Z,98.94
2018-10-15T05:57:43.517Z,98.05
2018-10-15T06:00:13.966Z,100.00
2018-10-15T06:02:42.528Z,100.00
2018-10-15T06:05:11.608Z,100.00
2018-10-15T06:07:41.375Z,100.00
2018-10-15T06:10:15.249Z,100.00
2018-10-15T06:12:45.439Z,99.61
2018-10-15T06:15:14.044Z,99.12
2018-10-15T06:17:42.637Z,99.07
2018-10-15T06:20:13.204Z,99.29
2018-10-15T06:22:41.930Z,100.00
2018-10-15T06:25:12.205Z,100.00
2018-10-15T06:27:41.156Z,100.00
2018-10-15T06:30:12.981Z,100.00
2018-10-15T06:32:41.556Z,100.00
2018-10-15T06:35:10.332Z,100.00
2018-10-15T06:37:38.904Z,100.00
2018-10-15T06:40:08.549Z,100.00
2018-10-15T06:42:38.397Z,100.00
2018-10-15T06:45:09.240Z,100.00
2018-10-15T06:47:38.035Z,100.00
2018-10-15T06:50:07.500Z,99.89
2018-10-15T06:52:36.124Z,99.95
2018-10-15T06:55:05.489Z,100.00
2018-10-15T06:57:34.094Z,99.77
2018-10-15T07:00:02.677Z,100.00
2018-10-15T07:02:31.253Z,98.68
2018-10-15T07:04:59.791Z,98.36
2018-10-15T07:07:28.480Z,98.62
2018-10-15T07:09:56.920Z,98.43
2018-10-15T07:12:25.488Z,98.63
2018-10-15T07:14:54.021Z,98.02
2018-10-15T07:17:22.583Z,97.30
2018-10-15T07:19:51.136Z,97.29
2018-10-15T07:22:19.715Z,96.75
2018-10-15T07:25:03.608Z,97.71
2018-10-15T07:27:32.429Z,97.48
2018-10-15T07:30:01.041Z,97.27
2018-10-15T07:32:29.629Z,96.88
2018-10-15T07:34:58.164Z,97.23
2018-10-15T07:37:26.761Z,98.49
2018-10-15T07:39:55.316Z,97.67
2018-10-15T07:42:24.665Z,97.59
2018-10-15T07:44:53.410Z,97.51
2018-10-15T07:47:23.443Z,96.17
2018-10-15T07:49:52.094Z,95.75
2018-10-15T07:52:20.789Z,95.32
2018-10-15T07:54:49.221Z,95.01
2018-10-15T07:57:17.794Z,94.59
2018-10-15T07:59:46.765Z,94.99
2018-10-15T08:02:15.505Z,94.04
2018-10-15T08:04:44.134Z,93.58
2018-10-15T08:07:13.143Z,93.10
2018-10-15T08:09:41.680Z,93.41
2018-10-15T08:12:10.261Z,92.79
2018-10-15T08:14:39.389Z,92.70
2018-10-15T08:17:09.320Z,92.58
2018-10-15T08:19:38.224Z,91.72
2018-10-15T08:22:08.513Z,92.42
2018-10-15T08:24:37.381Z,92.02
2018-10-15T08:27:05.929Z,91.96
2018-10-15T08:29:34.524Z,91.71
2018-10-15T08:32:03.173Z,90.31
2018-10-15T08:34:31.812Z,90.07
2018-10-15T08:37:00.284Z,89.89
2018-10-15T08:39:28.836Z,90.19
2018-10-15T08:41:57.374Z,89.57
2018-10-15T08:44:25.940Z,89.01
2018-10-15T08:46:54.481Z,88.01
2018-10-15T08:49:23.052Z,87.77
2018-10-15T08:51:51.664Z,87.49
2018-10-15T08:54:20.212Z,87.21
2018-10-15T08:56:48.775Z,86.70
2018-10-15T08:59:17.344Z,86.47
2018-10-15T09:01:45.928Z,86.19
2018-10-15T09:04:14.500Z,85.96
2018-10-15T09:06:43.704Z,85.81
2018-10-15T09:09:12.611Z,85.49
2018-10-15T09:11:41.104Z,85.20
2018-10-15T09:14:09.664Z,85.04
2018-10-15T09:16:38.284Z,84.95
2018-10-15T09:19:06.885Z,85.07
2018-10-15T09:21:35.453Z,83.41
2018-10-15T09:24:04.123Z,83.05
2018-10-15T09:26:32.669Z,82.52
2018-10-15T09:29:01.222Z,82.73
2018-10-15T09:31:31.691Z,82.58
2018-10-15T09:34:00.328Z,81.30
2018-10-15T09:36:28.938Z,80.21
2018-10-15T09:38:57.551Z,79.19
2018-10-15T09:41:26.107Z,79.79
2018-10-15T09:43:54.686Z,78.60
2018-10-15T09:46:23.244Z,78.21
2018-10-15T09:48:51.942Z,77.04
2018-10-15T09:51:20.425Z,77.47
2018-10-15T09:53:48.977Z,77.34
2018-10-15T09:56:17.508Z,77.08
2018-10-15T09:58:46.078Z,77.38
2018-10-15T10:01:19.845Z,76.32
2018-10-15T10:03:48.396Z,76.14
2018-10-15T10:06:16.927Z,75.55
2018-10-15T10:08:45.518Z,74.86
2018-10-15T10:11:14.036Z,74.21
2018-10-15T10:13:42.632Z,73.35
2018-10-15T10:16:11.200Z,74.21
2018-10-15T10:18:39.732Z,72.66
2018-10-15T10:21:08.308Z,71.52
2018-10-15T10:23:36.856Z,70.97
2018-10-15T10:26:05.704Z,71.05
2018-10-15T10:28:34.238Z,71.18
2018-10-15T10:31:02.827Z,69.43
2018-10-15T10:34:21.377Z,69.24
2018-10-15T10:37:00.047Z,68.38
2018-10-15T10:39:28.581Z,66.74
2018-10-15T10:41:57.167Z,68.12
2018-10-15T10:44:25.668Z,67.62
2018-10-15T10:46:54.233Z,67.47
2018-10-15T10:49:22.761Z,66.21
2018-10-15T10:51:51.333Z,66.50
2018-10-15T10:54:19.852Z,66.79
2018-10-15T10:56:48.416Z,66.01
2018-10-15T10:59:16.987Z,66.17
2018-10-15T11:01:45.529Z,65.13
2018-10-15T11:04:14.060Z,63.54
2018-10-15T11:06:42.610Z,64.70
2018-10-15T11:09:11.192Z,61.14
2018-10-15T11:11:39.741Z,60.92
2018-10-15T11:14:08.265Z,60.71
2018-10-15T11:16:36.868Z,59.33
2018-10-15T11:19:05.419Z,59.32
2018-10-15T11:21:33.982Z,59.69
2018-10-15T11:24:02.568Z,58.39
2018-10-15T11:26:33.310Z,59.67
2018-10-15T11:29:03.856Z,56.18
2018-10-15T11:31:33.217Z,53.40
2018-10-15T11:34:01.783Z,54.66
2018-10-15T11:36:30.407Z,52.65
2018-10-15T11:38:58.932Z,49.95
2018-10-15T11:41:27.480Z,49.45
2018-10-15T11:43:56.083Z,49.77
2018-10-15T11:46:24.707Z,49.19
2018-10-15T11:48:53.236Z,50.83
2018-10-15T11:51:21.842Z,48.39
2018-10-15T11:53:50.477Z,45.67
2018-10-15T11:56:19.040Z,47.10
2018-10-15T11:58:47.589Z,47.54
2018-10-15T12:01:16.145Z,47.05
2018-10-15T12:03:44.695Z,46.73
2018-10-15T12:06:13.272Z,46.55
2018-10-15T12:08:41.828Z,46.60
2018-10-15T12:11:10.898Z,46.82
2018-10-15T12:13:39.356Z,47.74
2018-10-15T12:16:13.663Z,47.93
2018-10-15T12:18:47.585Z,47.21
2018-10-15T12:21:18.498Z,44.79
2018-10-15T12:23:49.011Z,45.03
2018-10-15T12:26:24.415Z,46.68
2018-10-15T12:28:59.669Z,47.21
2018-10-15T12:31:34.482Z,46.72
2018-10-15T12:34:06.507Z,46.38
2018-10-15T12:36:38.492Z,45.98
2018-10-15T12:39:09.345Z,45.49
2018-10-15T12:41:44.555Z,46.62
2018-10-15T12:44:17.297Z,46.46
2018-10-15T12:46:49.754Z,45.59
2018-10-15T12:49:21.080Z,46.43
2018-10-15T12:51:49.852Z,44.40
2018-10-15T12:54:25.113Z,44.76
2018-10-15T12:56:54.984Z,45.31
2018-10-15T12:59:25.842Z,44.74
2018-10-15T13:01:59.774Z,44.98
2018-10-15T13:04:38.386Z,45.00
2018-10-15T13:07:10.515Z,45.56
2018-10-15T13:09:44.271Z,43.96
2018-10-15T13:12:21.139Z,43.71
2018-10-15T13:14:50.000Z,44.84
2018-10-15T13:17:23.453Z,44.39
2018-10-15T13:19:55.678Z,44.14
2018-10-15T13:22:28.351Z,43.86
2018-10-15T13:25:03.596Z,43.87
2018-10-15T13:27:32.409Z,43.97
2018-10-15T13:30:00.989Z,43.44
2018-10-15T13:32:29.573Z,43.53
2018-10-15T13:34:59.328Z,42.68
2018-10-15T13:37:28.020Z,43.13
2018-10-15T13:39:56.548Z,42.53
2018-10-15T13:42:25.203Z,42.06
2018-10-15T13:44:53.790Z,41.67
2018-10-15T13:47:22.441Z,42.89
2018-10-15T13:49:51.136Z,41.72
2018-10-15T13:52:19.936Z,41.67
2018-10-15T13:54:48.469Z,42.28
2018-10-15T13:57:17.055Z,41.46
2018-10-15T13:59:45.601Z,40.73
2018-10-15T14:02:14.179Z,40.29
2018-10-15T14:04:42.696Z,40.09
2018-10-15T14:07:11.261Z,39.80
2018-10-15T14:09:39.789Z,40.49
2018-10-15T14:12:08.697Z,40.45
2018-10-15T14:14:37.233Z,41.11
2018-10-15T14:17:05.896Z,41.04
2018-10-15T14:19:34.481Z,40.65
2018-10-15T14:22:03.040Z,41.54
2018-10-15T14:24:31.812Z,42.85
2018-10-15T14:27:00.388Z,39.08
2018-10-15T14:29:29.304Z,39.78
2018-10-15T14:31:57.837Z,37.79
2018-10-15T14:34:26.435Z,37.71
2018-10-15T14:36:55.033Z,38.66
2018-10-15T14:39:23.654Z,38.33
2018-10-15T14:41:52.245Z,37.06
2018-10-15T14:44:20.892Z,35.73
2018-10-15T14:46:49.424Z,35.71
2018-10-15T14:49:17.974Z,35.14
2018-10-15T14:51:46.552Z,35.77
2018-10-15T14:54:15.161Z,35.74
2018-10-15T14:56:44.427Z,36.05
2018-10-15T14:59:13.198Z,34.57
2018-10-15T15:01:41.780Z,35.87
2018-10-15T15:04:10.531Z,35.88
2018-10-15T15:06:39.118Z,36.62
2018-10-15T15:09:16.306Z,34.95
2018-10-15T15:11:59.795Z,35.82
2018-10-15T15:14:44.060Z,34.35
2018-10-15T15:17:19.434Z,34.71
2018-10-15T15:19:55.339Z,35.60
2018-10-15T15:22:31.320Z,36.03
2018-10-15T15:25:07.303Z,37.71
2018-10-15T15:27:45.214Z,37.54
2018-10-15T15:30:25.642Z,38.77
2018-10-15T15:33:02.069Z,38.63
2018-10-15T15:35:37.643Z,39.65
2018-10-15T15:38:14.388Z,40.11
2018-10-15T15:40:56.738Z,39.81
2018-10-15T15:43:37.657Z,41.65
2018-10-15T15:46:14.196Z,41.95
2018-10-15T15:48:48.545Z,42.22
2018-10-15T15:51:25.991Z,41.39
2018-10-15T15:54:01.853Z,43.11
2018-10-15T15:56:41.880Z,44.29
2018-10-15T15:59:18.463Z,45.77
2018-10-15T16:01:56.481Z,46.17
2018-10-15T16:04:34.608Z,47.29
2018-10-15T16:07:14.236Z,48.92
2018-10-15T16:09:53.458Z,48.95
2018-10-15T16:12:22.466Z,48.37
2018-10-15T16:14:51.033Z,47.20
2018-10-15T16:17:19.568Z,48.64
2018-10-15T16:19:48.152Z,51.04
2018-10-15T16:22:16.706Z,50.30
2018-10-15T16:24:45.321Z,50.64
2018-10-15T16:27:13.892Z,51.03
2018-10-15T16:29:42.436Z,50.85
2018-10-15T16:32:11.027Z,52.64
2018-10-15T16:34:39.584Z,54.40
2018-10-15T16:37:08.176Z,55.88
2018-10-15T16:39:36.725Z,58.06
2018-10-15T16:42:05.353Z,58.46
2018-10-15T16:44:33.908Z,58.97
2018-10-15T16:47:02.678Z,59.70
2018-10-15T16:49:31.232Z,59.83
2018-10-15T16:51:59.902Z,61.38
2018-10-15T16:54:28.491Z,60.77
2018-10-15T16:56:57.161Z,62.62
2018-10-15T16:59:25.817Z,65.99
2018-10-15T17:01:54.458Z,66.10
2018-10-15T17:04:23.016Z,66.11
2018-10-15T17:06:51.608Z,64.84
2018-10-15T17:09:20.197Z,65.13
2018-10-15T17:11:49.074Z,66.85
2018-10-15T17:14:19.667Z,67.56
2018-10-15T17:16:51.781Z,68.63
2018-10-15T17:19:22.876Z,68.64
2018-10-15T17:21:53.196Z,69.99
2018-10-15T17:24:23.791Z,70.60
2018-10-15T17:26:54.610Z,70.27
2018-10-15T17:29:28.698Z,72.83
2018-10-15T17:32:00.026Z,74.57
2018-10-15T17:34:29.265Z,72.69
2018-10-15T17:36:58.068Z,73.54
2018-10-15T17:39:28.744Z,74.89
2018-10-15T17:41:57.388Z,74.07
2018-10-15T17:44:25.977Z,75.32
2018-10-15T17:46:55.055Z,75.38
2018-10-15T17:49:23.722Z,76.28
2018-10-15T17:51:52.907Z,75.89
2018-10-15T17:54:21.541Z,77.84
2018-10-15T17:56:50.205Z,79.37
2018-10-15T17:59:26.584Z,80.39
2018-10-15T18:02:01.841Z,80.29
2018-10-15T18:04:31.317Z,78.24
2018-10-15T18:06:59.926Z,78.95
2018-10-15T18:09:28.505Z,80.07
2018-10-15T18:11:57.633Z,80.78
2018-10-15T18:14:26.213Z,81.02
2018-10-15T18:16:54.850Z,80.72
2018-10-15T18:19:23.415Z,81.60
2018-10-15T18:21:52.038Z,81.50
2018-10-15T18:24:20.615Z,82.86
2018-10-15T18:26:49.906Z,81.97
2018-10-15T18:29:20.047Z,84.24
2018-10-15T18:31:48.776Z,83.07
2018-10-15T18:34:17.337Z,81.43
2018-10-15T18:36:48.352Z,81.70
2018-10-15T18:39:17.030Z,82.08
2018-10-15T18:41:45.628Z,83.13
2018-10-15T18:44:14.186Z,83.97
2018-10-15T18:46:42.940Z,84.00
2018-10-15T18:49:11.762Z,84.75
2018-10-15T18:51:40.309Z,84.28
2018-10-15T18:54:09.118Z,84.72
2018-10-15T18:56:37.715Z,85.21
2018-10-15T18:59:08.913Z,85.08
2018-10-15T19:01:38.609Z,83.94
2018-10-15T19:04:10.124Z,82.30
2018-10-15T19:06:39.034Z,80.59
2018-10-15T19:09:10.020Z,80.12
2018-10-15T19:11:38.699Z,81.59
2018-10-15T19:14:09.041Z,83.03
2018-10-15T19:16:38.000Z,83.49
2018-10-15T19:19:07.774Z,82.77
2018-10-15T19:21:36.373Z,85.18
2018-10-15T19:24:05.133Z,88.28
2018-10-15T19:26:33.698Z,88.87
2018-10-15T19:29:02.288Z,88.89
2018-10-15T19:31:30.849Z,89.24
2018-10-15T19:33:59.578Z,89.51
2018-10-15T19:36:45.534Z,91.75
2018-10-15T19:39:15.764Z,90.83
2018-10-15T19:41:48.679Z,94.26
2018-10-15T19:44:24.633Z,91.51
2018-10-15T19:46:55.047Z,90.12
2018-10-15T19:49:27.412Z,89.63
2018-10-15T19:51:58.903Z,91.23
2018-10-15T19:54:28.826Z,93.68
2018-10-15T19:56:57.489Z,95.50
2018-10-15T19:59:28.119Z,96.76
2018-10-15T20:01:56.709Z,92.12
2018-10-15T20:04:25.308Z,90.57
2018-10-15T20:06:53.861Z,93.29
2018-10-15T20:09:22.512Z,92.53
2018-10-15T20:11:51.118Z,93.78
2018-10-15T20:14:21.208Z,98.18
2018-10-15T20:16:50.389Z,99.65
2018-10-15T20:19:19.095Z,100.00
2018-10-15T20:21:48.549Z,100.00
2018-10-15T20:24:23.148Z,100.00
2018-10-15T20:26:52.729Z,99.19
2018-10-15T20:29:22.990Z,100.00
2018-10-15T20:31:53.702Z,100.00
2018-10-15T20:34:24.287Z,100.00
2018-10-15T20:36:57.562Z,100.00
2018-10-15T20:39:29.176Z,100.00
2018-10-15T20:42:01.193Z,100.00
2018-10-15T20:44:30.764Z,97.29
2018-10-15T20:46:59.957Z,98.52
2018-10-15T20:49:31.813Z,98.62
2018-10-15T20:52:01.376Z,99.78
2018-10-15T20:54:30.688Z,97.00
2018-10-15T20:57:01.727Z,95.52
2018-10-15T20:59:31.660Z,94.72
2018-10-15T21:02:03.649Z,93.65
2018-10-15T21:04:33.310Z,95.06
2018-10-15T21:07:02.452Z,93.30
2018-10-15T21:09:32.748Z,95.41
2018-10-15T21:12:03.085Z,96.31
2018-10-15T21:14:32.813Z,97.55
2018-10-15T21:17:01.421Z,99.13
2018-10-15T21:19:30.257Z,100.00
2018-10-15T21:21:58.812Z,100.00
2018-10-15T21:24:27.418Z,100.00
2018-10-15T21:26:55.972Z,100.00
2018-10-15T21:29:25.423Z,100.00
2018-10-15T21:31:53.981Z,100.00
2018-10-15T21:34:29.655Z,100.00
2018-10-15T21:36:59.259Z,100.00
2018-10-15T21:39:28.131Z,100.00
2018-10-15T21:41:57.844Z,99.98
2018-10-15T21:44:26.563Z,98.29
2018-10-15T21:46:57.527Z,96.51
2018-10-15T21:49:28.035Z,96.23
2018-10-15T21:51:57.930Z,98.74
2018-10-15T21:54:27.221Z,100.00
2018-10-15T21:56:58.480Z,100.00
2018-10-15T21:59:29.081Z,100.00
2018-10-15T22:02:00.063Z,100.00
2018-10-15T22:04:29.104Z,100.00
2018-10-15T22:06:59.609Z,100.00
2018-10-15T22:09:30.336Z,100.00
2018-10-15T22:11:59.738Z,97.46
2018-10-15T22:14:29.798Z,96.13
2018-10-15T22:17:02.950Z,96.32
2018-10-15T22:19:33.032Z,96.57
2018-10-15T22:22:02.908Z,95.40
2018-10-15T22:24:32.706Z,93.80
2018-10-15T22:27:02.925Z,92.92
2018-10-15T22:29:31.486Z,93.25
2018-10-15T22:32:00.070Z,91.72
2018-10-15T22:34:28.768Z,96.08
2018-10-15T22:36:57.349Z,96.47
2018-10-15T22:39:25.937Z,98.35
2018-10-15T22:41:54.537Z,100.00
2018-10-15T22:44:23.097Z,100.00
2018-10-15T22:46:51.686Z,100.00
2018-10-15T22:49:20.261Z,98.89
2018-10-15T22:51:48.856Z,98.21
2018-10-15T22:54:17.513Z,98.48
2018-10-15T22:56:46.104Z,97.98
2018-10-15T22:59:14.681Z,100.00
2018-10-15T23:01:43.294Z,100.00
2018-10-15T23:04:11.846Z,100.00
2018-10-15T23:06:40.452Z,100.00
2018-10-15T23:09:10.203Z,100.00
2018-10-15T23:11:38.923Z,100.00
2018-10-15T23:14:07.977Z,97.96
2018-10-15T23:16:36.608Z,98.49
2018-10-15T23:19:05.357Z,97.53
2018-10-15T23:21:33.957Z,96.76
2018-10-15T23:24:02.502Z,99.38
2018-10-15T23:26:31.101Z,99.45
2018-10-15T23:28:59.653Z,98.20
2018-10-15T23:31:28.545Z,96.48
2018-10-15T23:33:57.110Z,96.98
2018-10-15T23:36:25.725Z,97.64
2018-10-15T23:38:54.272Z,96.86
2018-10-15T23:41:22.868Z,97.35
2018-10-15T23:43:51.421Z,96.43
2018-10-15T23:46:20.147Z,96.58
2018-10-15T23:48:48.704Z,97.00
2018-10-15T23:51:17.311Z,98.53
2018-10-15T23:53:45.909Z,98.83
2018-10-15T23:56:14.504Z,100.00
2018-10-15T23:58:43.061Z,100.00
